Time;durP1;ratioP1;P1;durP2;ratioP2;P2;SDS_P1;SDS_P2;PMS_P1;PMS_P2;Temp;Humidity;BMP_temperature;BMP_pressure;BME280_temperature;BME280_humidity;BME280_pressure;Samples;Min_cycle;Max_cycle;Signal;HPM_P1;HPM_P2
2023/08/05 00:01:42;;;;;;;1.05;0.70;;;;;;;11.79;100.00;99708.63;5051316;28;20037;-81
2023/08/05 00:04:07;;;;;;;2.70;0.82;;;;;;;11.78;100.00;99696.34;5016785;28;20051;-82
2023/08/05 00:06:33;;;;;;;2.67;0.70;;;;;;;11.72;100.00;99677.69;5026401;28;20037;-81
2023/08/05 00:08:59;;;;;;;1.90;0.90;;;;;;;11.71;100.00;99676.03;5033094;28;20028;-82
2023/08/05 00:11:25;;;;;;;2.15;0.70;;;;;;;11.64;100.00;99671.41;5022510;28;20030;-81
2023/08/05 00:13:51;;;;;;;1.85;0.70;;;;;;;11.66;100.00;99656.22;5025256;28;20091;-82
2023/08/05 00:16:17;;;;;;;2.00;0.95;;;;;;;11.68;100.00;99652.56;4989861;28;20038;-82
2023/08/05 00:18:43;;;;;;;3.88;0.57;;;;;;;11.68;100.00;99645.44;5006889;28;20103;-82
2023/08/05 00:21:08;;;;;;;0.50;0.50;;;;;;;11.69;100.00;99628.56;5030198;28;20063;-81
2023/08/05 00:23:34;;;;;;;0.93;0.40;;;;;;;11.72;100.00;99619.47;5010323;28;20041;-81
2023/08/05 00:26:00;;;;;;;1.23;0.60;;;;;;;11.72;100.00;99614.16;5001214;28;20099;-81
2023/08/05 00:28:26;;;;;;;8.75;0.70;;;;;;;11.72;100.00;99608.88;5022696;28;20040;-82
2023/08/05 00:30:52;;;;;;;1.30;0.50;;;;;;;11.73;100.00;99600.75;5024182;28;20029;-82
2023/08/05 00:33:18;;;;;;;0.73;0.38;;;;;;;11.74;100.00;99580.38;5013083;28;20037;-81
2023/08/05 00:35:44;;;;;;;0.40;0.30;;;;;;;11.76;100.00;99567.81;5007355;28;20145;-81
2023/08/05 00:38:09;;;;;;;0.75;0.32;;;;;;;11.72;100.00;99561.22;5015275;28;20584;-81
2023/08/05 00:40:35;;;;;;;1.00;0.35;;;;;;;11.76;100.00;99557.22;5030813;28;20048;-81
2023/08/05 00:43:01;;;;;;;0.40;0.20;;;;;;;11.83;100.00;99536.16;5018089;28;20033;-82
2023/08/05 00:45:27;;;;;;;0.30;0.30;;;;;;;11.86;100.00;99523.41;5030246;28;20036;-81
2023/08/05 00:47:53;;;;;;;0.50;0.22;;;;;;;11.90;100.00;99513.28;5015131;28;20044;-82
2023/08/05 00:50:20;;;;;;;0.57;0.20;;;;;;;11.90;100.00;99498.22;5016496;28;20063;-81
2023/08/05 00:52:46;;;;;;;0.80;0.20;;;;;;;11.93;100.00;99497.03;5025906;28;20033;-81
2023/08/05 00:55:12;;;;;;;0.20;0.20;;;;;;;11.96;100.00;99478.13;5028016;28;20115;-82
2023/08/05 00:57:37;;;;;;;0.40;0.10;;;;;;;11.97;100.00;99477.16;5011842;28;20036;-82
2023/08/05 01:00:04;;;;;;;1.80;0.20;;;;;;;11.99;100.00;99461.91;5013586;28;20096;-82
2023/08/05 01:02:30;;;;;;;0.38;0.10;;;;;;;12.03;100.00;99447.31;5023594;28;20505;-81
2023/08/05 01:04:58;;;;;;;0.68;0.20;;;;;;;12.07;100.00;99445.13;5017574;28;20112;-81
2023/08/05 01:07:26;;;;;;;0.63;0.10;;;;;;;12.12;100.00;99423.44;5015643;28;20039;-81
2023/08/05 01:09:52;;;;;;;0.17;0.10;;;;;;;12.14;100.00;99414.31;5032648;28;20040;-82
2023/08/05 01:12:17;;;;;;;0.15;0.10;;;;;;;12.15;100.00;99408.00;5005821;28;20128;-82
2023/08/05 01:14:43;;;;;;;0.20;0.10;;;;;;;12.18;100.00;99406.81;5010968;28;20099;-82
2023/08/05 01:17:09;;;;;;;0.30;0.10;;;;;;;12.17;100.00;99393.75;5016184;28;20029;-82
2023/08/05 01:19:36;;;;;;;0.10;0.10;;;;;;;12.21;100.00;99387.09;5011916;28;20488;-81
2023/08/05 01:22:10;;;;;;;0.10;0.10;;;;;;;12.26;100.00;99384.72;5044105;28;20032;-81
2023/08/05 01:24:58;;;;;;;0.32;0.10;;;;;;;12.27;100.00;99363.34;5010406;28;20045;-82
2023/08/05 01:27:24;;;;;;;0.30;0.10;;;;;;;12.28;100.00;99346.44;5016820;28;20044;-82
2023/08/05 01:29:50;;;;;;;0.10;0.10;;;;;;;12.31;100.00;99347.09;5012893;28;20036;-82
2023/08/05 01:32:18;;;;;;;0.25;0.10;;;;;;;12.35;100.00;99327.16;5025255;28;20128;-82
2023/08/05 01:34:47;;;;;;;0.20;0.10;;;;;;;12.37;100.00;99317.19;5012384;28;20036;-82
2023/08/05 01:37:13;;;;;;;0.40;0.13;;;;;;;12.37;100.00;99319.84;5008670;28;20034;-82
2023/08/05 01:39:39;;;;;;;0.15;0.05;;;;;;;12.41;100.00;99307.88;5022553;28;20033;-81
2023/08/05 01:42:06;;;;;;;2.20;0.17;;;;;;;12.44;100.00;99302.19;5018391;28;20132;-81
2023/08/05 01:44:32;;;;;;;0.10;0.10;;;;;;;12.45;100.00;99297.72;5008009;28;20517;-82
2023/08/05 01:46:57;;;;;;;0.28;0.00;;;;;;;12.45;100.00;99285.31;5029000;28;20057;-82
2023/08/05 01:49:23;;;;;;;0.30;0.03;;;;;;;12.47;100.00;99290.41;5031653;28;20056;-81
2023/08/05 01:51:49;;;;;;;0.08;0.00;;;;;;;12.50;100.00;99276.78;5012883;28;20112;-81
2023/08/05 01:54:16;;;;;;;0.05;0.05;;;;;;;12.52;100.00;99262.34;5007057;28;20037;-82
2023/08/05 01:56:42;;;;;;;0.08;0.08;;;;;;;12.56;100.00;99251.38;5000471;28;20037;-81
2023/08/05 01:59:08;;;;;;;0.80;0.32;;;;;;;12.58;100.00;99241.41;5026577;28;20536;-81
2023/08/05 02:01:47;;;;;;;0.10;0.00;;;;;;;12.64;100.00;99232.69;5012387;28;20037;-82
2023/08/05 02:04:13;;;;;;;0.00;0.00;;;;;;;12.63;100.00;99225.75;4994948;28;20176;-81
2023/08/05 02:06:40;;;;;;;0.10;0.10;;;;;;;12.65;100.00;99219.25;4995689;28;20091;-81
2023/08/05 02:09:07;;;;;;;0.57;0.10;;;;;;;12.66;100.00;99212.13;5035340;28;20069;-81
2023/08/05 02:11:33;;;;;;;0.43;0.03;;;;;;;12.67;100.00;99212.94;5016127;28;20048;-81
2023/08/05 02:13:59;;;;;;;0.10;0.00;;;;;;;12.67;100.00;99212.94;5013165;28;20029;-82
2023/08/05 02:16:25;;;;;;;0.10;0.00;;;;;;;12.69;100.00;99187.91;4996523;28;20044;-82
2023/08/05 02:18:52;;;;;;;4.00;0.10;;;;;;;12.77;100.00;99182.44;5006414;28;20049;-82
2023/08/05 02:21:18;;;;;;;0.28;0.00;;;;;;;12.78;100.00;99160.25;5033871;28;20041;-82
2023/08/05 02:23:44;;;;;;;0.00;0.00;;;;;;;12.80;100.00;99153.91;5042121;28;20040;-82
2023/08/05 02:26:09;;;;;;;0.20;0.00;;;;;;;12.83;100.00;99156.19;4999750;28;20570;-82
2023/08/05 02:28:36;;;;;;;0.05;0.00;;;;;;;12.80;100.00;99153.91;5021874;28;20082;-81
2023/08/05 02:31:02;;;;;;;0.10;0.00;;;;;;;12.83;100.00;99158.84;4997038;28;20033;-81
2023/08/05 02:33:28;;;;;;;1.90;0.15;;;;;;;12.84;100.00;99147.22;5015509;28;20033;-81
2023/08/05 02:35:58;;;;;;;0.30;0.00;;;;;;;12.87;100.00;99141.53;5028580;28;20055;-82
2023/08/05 02:38:24;;;;;;;0.70;0.10;;;;;;;12.87;100.00;99133.56;5025656;28;20029;-81
2023/08/05 02:40:49;;;;;;;0.08;0.08;;;;;;;12.91;100.00;99137.50;5026882;28;20518;-81
2023/08/05 02:43:15;;;;;;;0.77;0.10;;;;;;;12.94;100.00;99133.63;5014871;28;20033;-81
2023/08/05 02:45:41;;;;;;;1.55;0.10;;;;;;;12.96;100.00;99121.00;5050349;28;20041;-82
2023/08/05 02:48:07;;;;;;;0.55;0.00;;;;;;;12.96;100.00;99113.88;5028119;28;20040;-81
2023/08/05 02:50:33;;;;;;;0.85;0.10;;;;;;;12.98;100.00;99097.75;5027906;28;20053;-81
2023/08/05 02:52:59;;;;;;;0.30;0.10;;;;;;;12.99;100.00;99091.44;5044636;28;20506;-81
2023/08/05 02:55:25;;;;;;;0.00;0.00;;;;;;;13.02;100.00;99083.09;5011032;28;20033;-82
2023/08/05 02:57:50;;;;;;;0.15;0.10;;;;;;;13.03;100.00;99082.06;5013425;28;20037;-82
2023/08/05 03:00:16;;;;;;;0.45;0.00;;;;;;;13.05;100.00;99085.34;5008719;28;20044;-81
2023/08/05 03:02:42;;;;;;;1.58;0.00;;;;;;;13.08;100.00;99076.19;5016090;28;20031;-82
2023/08/05 03:05:08;;;;;;;0.10;0.00;;;;;;;13.11;100.00;99073.13;4999116;28;20390;-81
2023/08/05 03:07:34;;;;;;;0.00;0.00;;;;;;;13.13;100.00;99071.13;5015054;28;20037;-81
2023/08/05 03:10:00;;;;;;;0.73;0.00;;;;;;;13.15;100.00;99063.78;5038271;28;20033;-82
2023/08/05 03:12:26;;;;;;;1.00;0.00;;;;;;;13.15;100.00;99056.63;5028181;28;20471;-82
2023/08/05 03:14:52;;;;;;;0.00;0.00;;;;;;;13.20;100.00;99048.13;5014938;28;20029;-81
2023/08/05 03:17:18;;;;;;;0.00;0.00;;;;;;;13.21;100.00;99049.75;5026617;28;20037;-82
2023/08/05 03:19:44;;;;;;;0.00;0.00;;;;;;;13.24;100.00;99046.69;5033236;28;20034;-82
2023/08/05 03:22:10;;;;;;;0.10;0.00;;;;;;;13.26;100.00;99049.97;5018286;28;20056;-82
2023/08/05 03:24:41;;;;;;;1.75;0.13;;;;;;;13.30;100.00;99053.03;5029038;28;20510;-82
2023/08/05 03:27:07;;;;;;;0.47;0.05;;;;;;;13.32;100.00;99043.06;5013046;28;20041;-82
2023/08/05 03:29:33;;;;;;;0.35;0.08;;;;;;;13.35;100.00;99040.00;5032226;28;20041;-82
2023/08/05 03:32:00;;;;;;;0.32;0.10;;;;;;;13.38;100.00;99039.59;4987436;28;20455;-82
2023/08/05 03:34:26;;;;;;;0.40;0.13;;;;;;;13.45;100.00;99013.09;5027541;28;20056;-82
2023/08/05 03:36:56;;;;;;;3.25;0.15;;;;;;;13.46;100.00;99012.06;5030810;28;20108;-82
2023/08/05 03:39:22;;;;;;;0.95;0.10;;;;;;;13.48;100.00;99018.00;4997217;28;20128;-81
2023/08/05 03:41:48;;;;;;;0.10;0.10;;;;;;;13.48;100.00;99015.34;5013539;28;20037;-80
2023/08/05 03:44:14;;;;;;;0.15;0.10;;;;;;;13.51;100.00;99025.59;5016876;28;20045;-81
2023/08/05 03:46:40;;;;;;;0.20;0.03;;;;;;;13.53;100.00;99022.75;5030075;28;20030;-82
2023/08/05 03:49:06;;;;;;;0.57;0.10;;;;;;;13.57;100.00;99012.56;5035606;28;20057;-82
2023/08/05 03:51:32;;;;;;;0.52;0.10;;;;;;;13.63;100.00;99011.75;5012304;28;20029;-82
2023/08/05 03:54:02;;;;;;;0.70;0.10;;;;;;;13.71;100.00;99002.78;5023791;28;20060;-82
2023/08/05 03:56:28;;;;;;;0.98;0.10;;;;;;;13.73;100.00;99003.38;5003219;28;20041;-82
2023/08/05 03:58:55;;;;;;;2.67;0.10;;;;;;;13.77;100.00;99002.81;5026044;28;20094;-81
2023/08/05 04:01:22;;;;;;;0.30;0.10;;;;;;;13.75;100.00;99002.19;5034013;28;20032;-82
2023/08/05 04:03:51;;;;;;;0.75;0.10;;;;;;;13.81;100.00;98989.13;5033084;28;20090;-82
2023/08/05 04:06:20;;;;;;;0.57;0.10;;;;;;;13.84;100.00;98956.84;5012834;28;20032;-82
2023/08/05 04:08:53;;;;;;;0.50;0.10;;;;;;;13.79;100.00;98924.78;5038746;28;20033;-82
2023/08/05 04:11:20;;;;;;;0.20;0.10;;;;;;;13.72;100.00;98916.78;5029739;28;20078;-82
2023/08/05 04:13:46;;;;;;;4.05;0.20;;;;;;;13.70;100.00;98903.72;5028907;28;20064;-82
2023/08/05 04:16:11;;;;;;;7.13;0.40;;;;;;;13.67;100.00;98860.81;5009897;28;20090;-82
2023/08/05 04:18:40;;;;;;;2.20;0.20;;;;;;;13.58;100.00;98821.22;5027837;28;20077;-82
2023/08/05 04:21:09;;;;;;;1.85;0.10;;;;;;;13.57;100.00;98840.00;4997647;28;20364;-81
2023/08/05 04:23:35;;;;;;;1.02;0.20;;;;;;;13.59;100.00;98901.66;5005354;28;20068;-81
2023/08/05 04:26:04;;;;;;;0.10;0.10;;;;;;;13.65;100.00;98927.41;5013417;28;20040;-81
2023/08/05 04:28:31;;;;;;;0.22;0.10;;;;;;;13.70;100.00;98942.72;5030421;28;20087;-81
2023/08/05 04:30:57;;;;;;;3.72;0.10;;;;;;;13.74;100.00;98942.13;5028882;28;20272;-81
2023/08/05 04:33:27;;;;;;;0.52;0.20;;;;;;;13.79;100.00;98951.34;5022158;28;20033;-81
2023/08/05 04:35:54;;;;;;;0.38;0.20;;;;;;;13.81;100.00;98965.22;5008390;28;20115;-81
2023/08/05 04:38:20;;;;;;;0.20;0.10;;;;;;;13.83;100.00;98963.16;5022842;28;20053;-82
2023/08/05 04:40:46;;;;;;;0.43;0.10;;;;;;;13.84;100.00;98967.47;5026420;28;20133;-82
2023/08/05 04:43:12;;;;;;;0.45;0.28;;;;;;;13.82;100.00;98964.19;5025180;28;20033;-82
2023/08/05 04:45:38;;;;;;;2.45;0.00;;;;;;;13.81;100.00;98959.91;5003357;28;20053;-83
2023/08/05 04:48:08;;;;;;;0.10;0.00;;;;;;;13.84;100.00;98957.66;5018130;28;20033;-82
2023/08/05 04:50:38;;;;;;;0.32;0.10;;;;;;;13.88;100.00;98963.38;5011994;28;20393;-82
2023/08/05 04:53:05;;;;;;;0.00;0.00;;;;;;;13.87;100.00;98969.72;5038710;28;20041;-82
2023/08/05 04:55:31;;;;;;;0.47;0.05;;;;;;;13.84;100.00;98973.59;5012817;28;20037;-82
2023/08/05 04:57:56;;;;;;;0.75;0.10;;;;;;;13.84;100.00;98968.28;5025649;28;20096;-82
2023/08/05 05:00:22;;;;;;;6.78;0.30;;;;;;;13.87;100.00;98969.72;5006222;28;20051;-81
2023/08/05 05:02:48;;;;;;;0.13;0.10;;;;;;;13.87;100.00;98965.22;4999323;28;20128;-81
2023/08/05 05:05:14;;;;;;;0.10;0.00;;;;;;;13.88;100.00;98963.38;5019111;28;20033;-82
2023/08/05 05:07:40;;;;;;;0.38;0.03;;;;;;;13.85;100.00;98964.63;5026430;28;20044;-82
2023/08/05 05:10:06;;;;;;;0.00;0.00;;;;;;;13.84;100.00;98972.78;5031591;28;20025;-81
2023/08/05 05:12:32;;;;;;;0.30;0.00;;;;;;;13.78;100.00;98982.38;4948544;28;20436;-81
2023/08/05 05:14:58;;;;;;;0.00;0.00;;;;;;;13.74;100.00;98987.25;5015827;28;20104;-81
2023/08/05 05:17:24;;;;;;;0.80;0.00;;;;;;;13.72;100.00;98985.84;5031931;28;20036;-81
2023/08/05 05:19:50;;;;;;;1.17;0.10;;;;;;;13.70;100.00;98993.16;5015819;28;20029;-81
2023/08/05 05:22:17;;;;;;;4.68;0.10;;;;;;;13.72;100.00;98999.94;5016437;28;20033;-81
2023/08/05 05:24:44;;;;;;;1.48;0.10;;;;;;;13.70;100.00;99014.41;5039200;28;20032;-81
2023/08/05 05:27:13;;;;;;;2.45;0.10;;;;;;;13.63;100.00;99009.91;5012691;28;20916;-82
2023/08/05 05:29:39;;;;;;;1.38;1.17;;;;;;;13.56;100.00;99032.16;5033321;28;20020;-82
2023/08/05 05:32:06;;;;;;;2.00;0.00;;;;;;;13.49;100.00;99026.81;4989958;28;20132;-81
2023/08/05 05:34:32;;;;;;;0.10;0.10;;;;;;;13.40;100.00;99032.28;5023455;28;20483;-82
2023/08/05 05:36:57;;;;;;;2.60;0.00;;;;;;;13.36;100.00;99046.94;5042268;28;20053;-82
2023/08/05 05:39:23;;;;;;;0.43;0.00;;;;;;;13.33;100.00;99051.84;5013134;28;20033;-82
2023/08/05 05:41:49;;;;;;;0.00;0.00;;;;;;;13.28;100.00;99065.69;5015071;28;20132;-82
2023/08/05 05:44:15;;;;;;;0.98;0.00;;;;;;;13.23;100.00;99087.53;5012164;28;20036;-82
2023/08/05 05:46:43;;;;;;;0.65;0.00;;;;;;;13.09;100.00;99085.78;5024822;28;20033;-82
2023/08/05 05:49:10;;;;;;;0.20;0.10;;;;;;;12.94;100.00;99109.75;5022434;28;20037;-82
2023/08/05 05:51:36;;;;;;;0.00;0.00;;;;;;;12.78;100.00;99101.91;5011955;28;20034;-82
2023/08/05 05:54:02;;;;;;;0.10;0.10;;;;;;;12.70;100.00;99111.81;5037118;28;20102;-82
2023/08/05 05:56:28;;;;;;;0.00;0.00;;;;;;;12.60;100.00;99118.25;5029462;28;20044;-82
2023/08/05 05:58:54;;;;;;;0.00;0.00;;;;;;;12.49;100.00;99124.91;5021568;28;20056;-82
2023/08/05 06:01:20;;;;;;;2.53;0.82;;;;;;;12.41;100.00;99127.66;5024478;28;20421;-82
2023/08/05 06:03:46;;;;;;;0.25;0.00;;;;;;;12.36;100.00;99140.69;5022656;28;20107;-82
2023/08/05 06:06:12;;;;;;;0.73;0.10;;;;;;;12.30;100.00;99149.34;5027001;28;20033;-82
2023/08/05 06:08:38;;;;;;;0.00;0.00;;;;;;;12.28;100.00;99155.69;5029423;28;20044;-82
2023/08/05 06:11:04;;;;;;;0.00;0.00;;;;;;;12.24;100.00;99159.72;5020691;28;20033;-82
2023/08/05 06:13:30;;;;;;;0.57;0.10;;;;;;;12.18;100.00;99165.75;5019393;28;20122;-82
2023/08/05 06:15:56;;;;;;;0.13;0.00;;;;;;;12.14;100.00;99160.00;5027623;28;20110;-82
2023/08/05 06:18:22;;;;;;;0.00;0.00;;;;;;;12.05;100.00;99179.63;4953423;28;20049;-82
2023/08/05 06:20:48;;;;;;;0.00;0.00;;;;;;;11.96;100.00;99197.44;5037499;28;20029;-82
2023/08/05 06:23:15;;;;;;;1.20;0.00;;;;;;;11.93;100.00;99210.25;5012507;28;20029;-81
2023/08/05 06:25:41;;;;;;;0.10;0.00;;;;;;;11.79;100.00;99216.19;5028105;28;20040;-82
2023/08/05 06:28:07;;;;;;;0.00;0.00;;;;;;;11.73;100.00;99224.03;5018149;28;20037;-82
2023/08/05 06:30:34;;;;;;;0.00;0.00;;;;;;;11.68;100.00;99227.22;5030600;28;20026;-82
2023/08/05 06:33:00;;;;;;;0.00;0.00;;;;;;;11.64;100.00;99249.78;5010621;28;20037;-81
2023/08/05 06:35:26;;;;;;;0.00;0.00;;;;;;;11.61;100.00;99272.09;5019068;28;20451;-82
2023/08/05 06:37:52;;;;;;;0.10;0.00;;;;;;;11.49;100.00;99281.50;5034484;28;20104;-82
2023/08/05 06:40:18;;;;;;;0.10;0.00;;;;;;;11.48;100.00;99301.81;5018030;28;20128;-81
2023/08/05 06:42:44;;;;;;;0.00;0.00;;;;;;;11.46;100.00;99310.94;5027806;28;20061;-81
2023/08/05 06:45:10;;;;;;;1.23;0.13;;;;;;;11.40;100.00;99331.81;5038185;28;20112;-82
2023/08/05 06:47:36;;;;;;;0.03;0.00;;;;;;;11.33;100.00;99335.34;4999457;28;20035;-82
2023/08/05 06:50:05;;;;;;;0.10;0.10;;;;;;;11.29;100.00;99346.28;5034776;28;20154;-82
2023/08/05 06:52:31;;;;;;;0.10;0.10;;;;;;;11.22;100.00;99379.75;5042187;28;20104;-82
2023/08/05 06:55:00;;;;;;;0.40;0.20;;;;;;;11.22;100.00;99397.44;5033541;28;20029;-82
2023/08/05 06:57:26;;;;;;;0.30;0.20;;;;;;;11.26;100.00;99415.41;5041796;28;20029;-82
2023/08/05 06:59:52;;;;;;;0.47;0.30;;;;;;;11.20;100.00;99444.38;5015213;28;20042;-82
2023/08/05 07:02:18;;;;;;;0.52;0.30;;;;;;;11.16;100.00;99443.91;5027916;28;20050;-82
2023/08/05 07:04:43;;;;;;;0.40;0.40;;;;;;;11.14;100.00;99475.00;5031062;28;20033;-82
2023/08/05 07:07:09;;;;;;;0.20;0.20;;;;;;;11.11;100.00;99499.16;5031084;28;20507;-81
2023/08/05 07:09:35;;;;;;;0.43;0.30;;;;;;;11.07;100.00;99506.59;5025495;28;20094;-82
2023/08/05 07:12:01;;;;;;;1.40;0.50;;;;;;;11.12;100.00;99551.88;5013819;28;20726;-81
2023/08/05 07:14:27;;;;;;;0.85;0.60;;;;;;;11.14;100.00;99567.56;5027875;28;20470;-81
2023/08/05 07:16:52;;;;;;;0.63;0.30;;;;;;;11.11;100.00;99589.91;5019056;28;20390;-82
2023/08/05 07:19:18;;;;;;;0.73;0.50;;;;;;;11.09;100.00;99602.47;5051566;28;20045;-81
2023/08/05 07:21:44;;;;;;;0.17;0.15;;;;;;;11.06;100.00;99620.47;4991402;28;20037;-81
2023/08/05 07:24:10;;;;;;;2.45;1.08;;;;;;;11.04;100.00;99623.28;5043713;28;20102;-81
2023/08/05 07:26:35;;;;;;;0.60;0.50;;;;;;;11.00;100.00;99621.97;5021448;28;20029;-81
2023/08/05 07:29:01;;;;;;;1.15;1.05;;;;;;;10.93;100.00;99650.91;5034959;28;20497;-81
2023/08/05 07:31:27;;;;;;;0.50;0.43;;;;;;;10.92;100.00;99647.41;5017559;28;20088;-81
2023/08/05 07:33:52;;;;;;;2.38;0.93;;;;;;;10.97;100.00;99675.19;5039381;28;20033;-81
2023/08/05 07:36:22;;;;;;;1.65;0.90;;;;;;;11.01;100.00;99684.44;5035648;28;20489;-81
2023/08/05 07:38:49;;;;;;;1.10;0.63;;;;;;;11.07;100.00;99693.53;5015282;28;20033;-80
2023/08/05 07:41:16;;;;;;;0.60;0.50;;;;;;;11.12;100.00;99728.22;5027175;28;20036;-80
2023/08/05 07:43:42;;;;;;;1.83;1.20;;;;;;;11.21;100.00;99716.66;5011411;28;20087;-81
2023/08/05 07:46:11;;;;;;;1.00;0.75;;;;;;;11.21;100.00;99731.72;5028755;28;20037;-81
2023/08/05 07:48:39;;;;;;;2.28;1.38;;;;;;;11.27;100.00;99741.63;5033305;28;20062;-81
2023/08/05 07:51:06;;;;;;;2.17;1.30;;;;;;;11.33;100.00;99754.19;5009964;28;20575;-81
2023/08/05 07:53:35;;;;;;;2.53;1.50;;;;;;;11.43;100.00;99763.78;5026464;28;20033;-81
2023/08/05 07:56:11;;;;;;;4.28;1.30;;;;;;;11.53;100.00;99782.97;5032280;28;20037;-81
2023/08/05 07:58:46;;;;;;;2.38;1.00;;;;;;;11.48;100.00;99775.50;5016255;28;20037;-81
2023/08/05 08:01:13;;;;;;;1.33;1.05;;;;;;;11.61;100.00;99804.13;5009993;28;20450;-81
2023/08/05 08:03:41;;;;;;;1.95;1.00;;;;;;;11.68;100.00;99798.97;5014831;28;20132;-82
2023/08/05 08:06:07;;;;;;;1.48;1.23;;;;;;;11.70;100.00;99817.34;5028983;28;20168;-81
2023/08/05 08:08:33;;;;;;;1.40;0.90;;;;;;;11.65;100.00;99813.38;5033189;28;20032;-82
2023/08/05 08:10:59;;;;;;;5.88;1.02;;;;;;;11.64;100.00;99850.63;5045781;28;20071;-81
2023/08/05 08:13:25;;;;;;;4.05;1.13;;;;;;;11.71;100.00;99826.94;5019188;28;20033;-81
2023/08/05 08:15:51;;;;;;;1.33;0.70;;;;;;;11.70;100.00;99841.16;5044717;28;20033;-81
2023/08/05 08:18:16;;;;;;;1.67;0.93;;;;;;;11.75;100.00;99862.69;5002114;28;20057;-81
2023/08/05 08:20:51;;;;;;;1.27;1.02;;;;;;;11.82;100.00;99857.56;5025365;28;20040;-81
2023/08/05 08:23:18;;;;;;;1.10;0.85;;;;;;;11.86;100.00;99853.56;5030043;28;20384;-81
2023/08/05 08:25:44;;;;;;;4.93;1.20;;;;;;;11.87;100.00;99879.03;5032700;28;20060;-81
2023/08/05 08:28:09;;;;;;;2.60;1.25;;;;;;;11.80;100.00;99881.56;5027130;28;20064;-81
2023/08/05 08:30:35;;;;;;;1.67;0.90;;;;;;;11.77;100.00;99892.44;5023583;28;20057;-82
2023/08/05 08:33:01;;;;;;;0.68;0.60;;;;;;;11.67;100.00;99895.28;5046914;28;20033;-81
2023/08/05 08:35:27;;;;;;;0.75;0.50;;;;;;;11.70;100.00;99902.06;5041482;28;20036;-81
2023/08/05 08:37:52;;;;;;;0.80;0.60;;;;;;;11.78;100.00;99905.53;5028028;28;20037;-82
2023/08/05 08:40:18;;;;;;;1.35;0.70;;;;;;;11.95;100.00;99916.13;5009218;28;20395;-81
2023/08/05 08:42:44;;;;;;;1.10;0.68;;;;;;;12.13;100.00;99929.22;5026082;28;20029;-81
2023/08/05 08:45:15;;;;;;;0.65;0.65;;;;;;;12.31;100.00;99922.09;5008542;28;20100;-82
2023/08/05 08:47:42;;;;;;;0.50;0.50;;;;;;;12.40;100.00;99929.84;5002514;28;20060;-81
2023/08/05 08:50:08;;;;;;;3.05;0.57;;;;;;;12.51;100.00;99919.88;5011094;28;20045;-82
2023/08/05 08:52:35;;;;;;;0.40;0.40;;;;;;;12.58;100.00;99923.47;5028594;28;20036;-81
2023/08/05 08:55:03;;;;;;;1.65;0.60;;;;;;;12.69;100.00;99918.81;5035409;28;20483;-81
2023/08/05 08:57:29;;;;;;;0.60;0.60;;;;;;;12.77;100.00;99926.75;5012901;28;20033;-82
2023/08/05 08:59:56;;;;;;;0.70;0.70;;;;;;;12.90;100.00;99932.31;5028635;28;20777;-82
2023/08/05 09:02:26;;;;;;;1.23;0.77;;;;;;;12.96;100.00;99940.59;5001721;28;20144;-81
2023/08/05 09:04:53;;;;;;;0.82;0.50;;;;;;;12.99;100.00;99938.44;5030988;28;20028;-81
2023/08/05 09:07:27;;;;;;;1.15;0.70;;;;;;;13.15;100.00;99947.31;5038477;28;20028;-81
2023/08/05 09:09:53;;;;;;;1.63;0.60;;;;;;;13.28;100.00;99946.75;5019571;28;20799;-81
2023/08/05 09:12:19;;;;;;;0.82;0.52;;;;;;;13.26;100.00;99970.81;5015273;28;20052;-82
2023/08/05 09:14:53;;;;;;;0.90;0.63;;;;;;;13.20;100.00;99971.50;5025573;28;20071;-82
2023/08/05 09:17:19;;;;;;;0.50;0.50;;;;;;;13.05;100.00;99976.72;5038510;28;20498;-81
2023/08/05 09:19:44;;;;;;;1.08;0.98;;;;;;;13.01;100.00;99978.06;5027860;28;20068;-82
2023/08/05 09:22:10;;;;;;;1.08;0.90;;;;;;;13.01;100.00;99996.63;5015777;28;20033;-82
2023/08/05 09:24:36;;;;;;;2.72;1.33;;;;;;;12.96;100.00;99999.78;5016061;28;20060;-81
2023/08/05 09:27:02;;;;;;;1.00;0.90;;;;;;;12.82;100.00;99987.25;5006032;28;20033;-81
2023/08/05 09:29:28;;;;;;;1.52;0.90;;;;;;;12.82;100.00;99998.66;5036492;28;20108;-82
2023/08/05 09:32:04;;;;;;;1.63;1.25;;;;;;;12.91;100.00;100004.78;5013308;28;20048;-81
2023/08/05 09:34:35;;;;;;;1.67;1.15;;;;;;;12.97;100.00;100006.75;5006288;28;20041;-82
2023/08/05 09:37:01;;;;;;;3.22;1.20;;;;;;;13.00;100.00;100010.88;4999136;28;21184;-81
2023/08/05 09:39:45;;;;;;;1.40;0.95;;;;;;;13.19;100.00;100017.59;5038085;28;20176;-82
2023/08/05 09:42:19;;;;;;;1.50;1.35;;;;;;;13.36;100.00;100025.50;5032210;28;20094;-82
2023/08/05 09:44:47;;;;;;;2.20;1.67;;;;;;;13.31;100.00;100027.84;5042285;28;20030;-82
2023/08/05 09:47:17;;;;;;;1.23;1.10;;;;;;;13.21;100.00;100020.09;5028565;28;20090;-82
2023/08/05 09:49:51;;;;;;;2.13;1.58;;;;;;;13.23;100.00;100032.19;5024118;28;20036;-82
2023/08/05 09:52:18;;;;;;;4.03;1.83;;;;;;;13.21;100.00;100036.84;5039746;28;20033;-82
2023/08/05 09:54:55;;;;;;;4.07;1.60;;;;;;;13.32;100.00;100035.63;5034203;28;20039;-82
2023/08/05 09:57:21;;;;;;;2.22;1.70;;;;;;;13.32;100.00;100038.28;5025271;28;20044;-81
2023/08/05 09:59:48;;;;;;;3.72;1.98;;;;;;;13.47;100.00;100048.19;5016992;28;20048;-82
2023/08/05 10:02:25;;;;;;;1.98;1.33;;;;;;;13.54;100.00;100035.88;5025987;28;20029;-82
2023/08/05 10:04:56;;;;;;;4.18;1.58;;;;;;;13.48;100.00;100047.19;5010698;28;20041;-82
2023/08/05 10:07:27;;;;;;;1.92;1.55;;;;;;;13.56;100.00;100060.44;5035707;28;20484;-82
2023/08/05 10:09:53;;;;;;;1.77;1.33;;;;;;;13.64;100.00;100054.28;5033881;28;20037;-81
2023/08/05 10:12:31;;;;;;;1.52;1.13;;;;;;;13.86;100.00;100054.47;5032047;28;20037;-82
2023/08/05 10:14:59;;;;;;;1.80;1.25;;;;;;;13.89;100.00;100022.22;5018350;28;20127;-82
2023/08/05 10:17:26;;;;;;;5.50;1.40;;;;;;;13.80;100.00;100058.66;5008444;28;20036;-82
2023/08/05 10:19:53;;;;;;;3.42;1.45;;;;;;;13.73;100.00;100066.50;5028345;28;20526;-82
2023/08/05 10:22:26;;;;;;;1.80;1.25;;;;;;;13.79;100.00;100064.16;5026617;28;20095;-82
2023/08/05 10:24:56;;;;;;;2.05;1.40;;;;;;;13.86;100.00;100075.72;5033636;28;20029;-80
2023/08/05 10:27:34;;;;;;;1.98;1.40;;;;;;;13.93;100.00;100074.03;5000529;28;20060;-80
2023/08/05 10:30:10;;;;;;;2.53;1.70;;;;;;;14.13;100.00;100070.91;5047464;28;20021;-82
2023/08/05 10:32:54;;;;;;;2.03;1.23;;;;;;;14.29;100.00;100066.47;5013686;28;20037;-81
2023/08/05 10:35:39;;;;;;;2.17;1.55;;;;;;;14.23;100.00;100089.28;5027397;28;20056;-81
2023/08/05 10:38:23;;;;;;;2.40;1.58;;;;;;;14.16;100.00;100091.00;5012092;28;20067;-82
2023/08/05 10:41:06;;;;;;;1.88;1.35;;;;;;;14.04;100.00;100102.03;5013686;28;20120;-82
2023/08/05 10:43:40;;;;;;;2.05;1.48;;;;;;;13.94;100.00;100098.75;5026650;28;20120;-82
2023/08/05 10:46:06;;;;;;;3.28;1.20;;;;;;;13.86;100.00;100100.47;5019567;28;20033;-82
2023/08/05 10:49:05;;;;;;;1.27;1.17;;;;;;;13.80;100.00;100101.16;5018824;28;20499;-81
2023/08/05 10:51:32;;;;;;;2.00;1.00;;;;;;;13.75;100.00;100112.31;5010027;28;20120;-81
2023/08/05 10:53:59;;;;;;;1.63;1.02;;;;;;;13.79;100.00;100112.81;5011571;28;20029;-81
2023/08/05 10:56:43;;;;;;;1.55;1.00;;;;;;;13.76;100.00;100113.97;5020654;28;20026;-82
2023/08/05 10:59:13;;;;;;;1.85;1.42;;;;;;;13.75;100.00;100116.78;5041762;28;20037;-82
2023/08/05 11:01:52;;;;;;;0.75;0.70;;;;;;;13.69;100.00;100105.03;5045910;28;20116;-82
2023/08/05 11:04:29;;;;;;;1.42;1.10;;;;;;;13.92;100.00;100122.84;5023536;28;20033;-81
2023/08/05 11:06:56;;;;;;;1.13;0.80;;;;;;;14.32;100.00;100121.94;5008248;28;20407;-81
2023/08/05 11:09:22;;;;;;;2.47;1.30;;;;;;;14.64;100.00;100125.34;5033010;28;20529;-82
2023/08/05 11:11:48;;;;;;;2.58;1.00;;;;;;;14.73;100.00;100129.59;5046662;28;20049;-82
2023/08/05 11:14:19;;;;;;;1.85;1.05;;;;;;;14.72;100.00;100125.28;5041333;28;20107;-82
2023/08/05 11:16:46;;;;;;;2.10;1.23;;;;;;;14.74;100.00;100141.06;5018025;28;20418;-81
2023/08/05 11:19:12;;;;;;;4.07;1.38;;;;;;;14.59;100.00;100141.00;5015347;28;20063;-82
2023/08/05 11:21:43;;;;;;;5.00;1.73;;;;;;;14.48;100.00;100145.75;5017121;28;20556;-82
2023/08/05 11:24:19;;;;;;;1.25;1.15;;;;;;;14.41;100.00;100143.97;5016754;28;20037;-82
2023/08/05 11:26:46;;;;;;;1.60;1.00;;;;;;;14.32;100.00;100149.34;5030430;28;20040;-83